sensor_id;sensor_type;location;lat;lon;timestamp;temperature;humidity
29093;DHT22;16167;48.768;14.984;2023-03-01T00:00:19;-5.10;51.50
29093;DHT22;16167;48.768;14.984;2023-03-01T00:02:49;-5.10;54.50
29093;DHT22;16167;48.768;14.984;2023-03-01T00:05:17;-5.10;56.90
29093;DHT22;16167;48.768;14.984;2023-03-01T00:07:44;-5.10;62.50
29093;DHT22;16167;48.768;14.984;2023-03-01T00:10:12;-5.10;55.30
29093;DHT22;16167;48.768;14.984;2023-03-01T00:12:40;-5.10;50.80
29093;DHT22;16167;48.768;14.984;2023-03-01T00:15:09;-5.00;49.10
29093;DHT22;16167;48.768;14.984;2023-03-01T00:17:38;-5.00;45.40
29093;DHT22;16167;48.768;14.984;2023-03-01T00:20:08;-5.00;45.10
29093;DHT22;16167;48.768;14.984;2023-03-01T00:22:36;-5.10;40.10
29093;DHT22;16167;48.768;14.984;2023-03-01T00:25:04;-5.10;40.90
29093;DHT22;16167;48.768;14.984;2023-03-01T00:27:32;-5.20;46.30
29093;DHT22;16167;48.768;14.984;2023-03-01T00:30:00;-5.20;53.20
29093;DHT22;16167;48.768;14.984;2023-03-01T00:32:29;-5.20;53.00
29093;DHT22;16167;48.768;14.984;2023-03-01T00:34:57;-5.30;58.10
29093;DHT22;16167;48.768;14.984;2023-03-01T00:37:26;-5.30;55.50
29093;DHT22;16167;48.768;14.984;2023-03-01T00:39:54;-5.40;55.00
29093;DHT22;16167;48.768;14.984;2023-03-01T00:42:22;-5.40;53.50
29093;DHT22;16167;48.768;14.984;2023-03-01T00:44:50;-5.40;53.30
29093;DHT22;16167;48.768;14.984;2023-03-01T00:47:17;-5.50;57.20
29093;DHT22;16167;48.768;14.984;2023-03-01T00:49:45;-5.50;57.80
29093;DHT22;16167;48.768;14.984;2023-03-01T00:52:13;-5.50;57.70
29093;DHT22;16167;48.768;14.984;2023-03-01T00:54:42;-5.40;56.10
29093;DHT22;16167;48.768;14.984;2023-03-01T00:57:10;-5.40;59.80
29093;DHT22;16167;48.768;14.984;2023-03-01T00:59:38;-5.40;56.80
29093;DHT22;16167;48.768;14.984;2023-03-01T01:02:06;-5.50;48.80
29093;DHT22;16167;48.768;14.984;2023-03-01T01:04:34;-5.50;44.40
29093;DHT22;16167;48.768;14.984;2023-03-01T01:07:02;-5.60;44.30
29093;DHT22;16167;48.768;14.984;2023-03-01T01:09:30;-5.60;48.20
29093;DHT22;16167;48.768;14.984;2023-03-01T01:11:59;-5.60;50.00
29093;DHT22;16167;48.768;14.984;2023-03-01T01:14:27;-5.70;50.90
29093;DHT22;16167;48.768;14.984;2023-03-01T01:16:55;-5.70;47.00
29093;DHT22;16167;48.768;14.984;2023-03-01T01:19:23;-5.70;46.50
29093;DHT22;16167;48.768;14.984;2023-03-01T01:21:51;-5.80;47.10
29093;DHT22;16167;48.768;14.984;2023-03-01T01:24:19;-5.80;47.60
29093;DHT22;16167;48.768;14.984;2023-03-01T01:26:47;-5.80;54.60
29093;DHT22;16167;48.768;14.984;2023-03-01T01:29:16;-5.80;58.30
29093;DHT22;16167;48.768;14.984;2023-03-01T01:31:44;-5.80;57.60
29093;DHT22;16167;48.768;14.984;2023-03-01T01:34:14;-5.90;59.40
29093;DHT22;16167;48.768;14.984;2023-03-01T01:36:42;-5.90;59.70
29093;DHT22;16167;48.768;14.984;2023-03-01T01:39:10;-5.80;59.80
29093;DHT22;16167;48.768;14.984;2023-03-01T01:41:40;-5.80;61.20
29093;DHT22;16167;48.768;14.984;2023-03-01T01:44:12;-5.90;57.90
29093;DHT22;16167;48.768;14.984;2023-03-01T01:46:42;-5.90;54.00
29093;DHT22;16167;48.768;14.984;2023-03-01T01:49:15;-5.90;59.40
29093;DHT22;16167;48.768;14.984;2023-03-01T01:51:45;-5.90;64.40
29093;DHT22;16167;48.768;14.984;2023-03-01T01:54:15;-5.90;65.70
29093;DHT22;16167;48.768;14.984;2023-03-01T01:56:45;-5.90;68.20
29093;DHT22;16167;48.768;14.984;2023-03-01T01:59:14;-5.90;65.30
29093;DHT22;16167;48.768;14.984;2023-03-01T02:01:43;-5.80;62.80
29093;DHT22;16167;48.768;14.984;2023-03-01T02:04:11;-5.70;63.10
29093;DHT22;16167;48.768;14.984;2023-03-01T02:06:41;-5.70;65.70
29093;DHT22;16167;48.768;14.984;2023-03-01T02:09:12;-5.70;62.70
29093;DHT22;16167;48.768;14.984;2023-03-01T02:11:41;-5.70;63.90
29093;DHT22;16167;48.768;14.984;2023-03-01T02:14:10;-5.70;63.10
29093;DHT22;16167;48.768;14.984;2023-03-01T02:16:38;-5.70;63.30
29093;DHT22;16167;48.768;14.984;2023-03-01T02:19:07;-5.80;59.40
29093;DHT22;16167;48.768;14.984;2023-03-01T02:21:38;-5.80;60.10
29093;DHT22;16167;48.768;14.984;2023-03-01T02:24:12;-5.90;61.50
29093;DHT22;16167;48.768;14.984;2023-03-01T02:26:46;-5.90;57.20
29093;DHT22;16167;48.768;14.984;2023-03-01T02:29:17;-5.90;58.40
29093;DHT22;16167;48.768;14.984;2023-03-01T02:31:45;-6.00;63.20
29093;DHT22;16167;48.768;14.984;2023-03-01T02:34:13;-6.00;65.90
29093;DHT22;16167;48.768;14.984;2023-03-01T02:36:43;-6.00;63.40
29093;DHT22;16167;48.768;14.984;2023-03-01T02:39:12;-6.10;62.00
29093;DHT22;16167;48.768;14.984;2023-03-01T02:41:45;-6.10;62.30
29093;DHT22;16167;48.768;14.984;2023-03-01T02:44:14;-6.10;68.60
29093;DHT22;16167;48.768;14.984;2023-03-01T02:46:44;-6.10;69.00
29093;DHT22;16167;48.768;14.984;2023-03-01T02:49:18;-6.20;65.60
29093;DHT22;16167;48.768;14.984;2023-03-01T02:51:47;-6.10;67.00
29093;DHT22;16167;48.768;14.984;2023-03-01T02:54:21;-6.10;59.30
29093;DHT22;16167;48.768;14.984;2023-03-01T02:56:52;-6.10;55.90
29093;DHT22;16167;48.768;14.984;2023-03-01T02:59:21;-6.10;55.10
29093;DHT22;16167;48.768;14.984;2023-03-01T03:01:51;-6.10;58.30
29093;DHT22;16167;48.768;14.984;2023-03-01T03:04:19;-6.10;57.10
29093;DHT22;16167;48.768;14.984;2023-03-01T03:06:48;-6.10;54.40
29093;DHT22;16167;48.768;14.984;2023-03-01T03:09:16;-6.10;54.80
29093;DHT22;16167;48.768;14.984;2023-03-01T03:11:45;-6.20;60.00
29093;DHT22;16167;48.768;14.984;2023-03-01T03:14:13;-6.20;60.90
29093;DHT22;16167;48.768;14.984;2023-03-01T03:16:41;-6.20;64.40
29093;DHT22;16167;48.768;14.984;2023-03-01T03:19:11;-6.30;66.30
29093;DHT22;16167;48.768;14.984;2023-03-01T03:21:39;-6.30;59.10
29093;DHT22;16167;48.768;14.984;2023-03-01T03:24:07;-6.30;54.30
29093;DHT22;16167;48.768;14.984;2023-03-01T03:26:34;-6.30;53.90
29093;DHT22;16167;48.768;14.984;2023-03-01T03:29:02;-6.40;51.50
29093;DHT22;16167;48.768;14.984;2023-03-01T03:31:30;-6.40;54.40
29093;DHT22;16167;48.768;14.984;2023-03-01T03:33:58;-6.40;59.10
29093;DHT22;16167;48.768;14.984;2023-03-01T03:36:27;-6.40;58.10
29093;DHT22;16167;48.768;14.984;2023-03-01T03:38:56;-6.30;56.00
29093;DHT22;16167;48.768;14.984;2023-03-01T03:41:23;-6.20;59.40
29093;DHT22;16167;48.768;14.984;2023-03-01T03:43:51;-6.10;59.40
29093;DHT22;16167;48.768;14.984;2023-03-01T03:46:19;-6.10;55.20
29093;DHT22;16167;48.768;14.984;2023-03-01T03:48:47;-6.10;56.80
29093;DHT22;16167;48.768;14.984;2023-03-01T03:51:17;-6.10;52.40
29093;DHT22;16167;48.768;14.984;2023-03-01T03:53:46;-6.00;57.80
29093;DHT22;16167;48.768;14.984;2023-03-01T03:56:14;-6.00;61.90
29093;DHT22;16167;48.768;14.984;2023-03-01T03:58:42;-6.00;56.80
29093;DHT22;16167;48.768;14.984;2023-03-01T04:01:10;-6.00;59.10
29093;DHT22;16167;48.768;14.984;2023-03-01T04:03:38;-6.00;59.20
29093;DHT22;16167;48.768;14.984;2023-03-01T04:06:06;-6.10;64.20
29093;DHT22;16167;48.768;14.984;2023-03-01T04:08:33;-6.10;60.80
29093;DHT22;16167;48.768;14.984;2023-03-01T04:11:03;-6.20;63.10
29093;DHT22;16167;48.768;14.984;2023-03-01T04:13:53;-6.20;63.40
29093;DHT22;16167;48.768;14.984;2023-03-01T04:16:21;-6.20;64.60
29093;DHT22;16167;48.768;14.984;2023-03-01T04:18:50;-6.30;65.30
29093;DHT22;16167;48.768;14.984;2023-03-01T04:21:19;-6.30;63.20
29093;DHT22;16167;48.768;14.984;2023-03-01T04:23:46;-6.40;57.90
29093;DHT22;16167;48.768;14.984;2023-03-01T04:26:16;-6.40;63.60
29093;DHT22;16167;48.768;14.984;2023-03-01T04:28:44;-6.40;61.70
29093;DHT22;16167;48.768;14.984;2023-03-01T04:31:15;-6.40;60.70
29093;DHT22;16167;48.768;14.984;2023-03-01T04:33:45;-6.40;57.60
29093;DHT22;16167;48.768;14.984;2023-03-01T04:36:14;-6.50;61.50
29093;DHT22;16167;48.768;14.984;2023-03-01T04:38:43;-6.50;65.90
29093;DHT22;16167;48.768;14.984;2023-03-01T04:41:14;-6.50;64.60
29093;DHT22;16167;48.768;14.984;2023-03-01T04:43:44;-6.50;62.80
29093;DHT22;16167;48.768;14.984;2023-03-01T04:46:12;-6.50;62.20
29093;DHT22;16167;48.768;14.984;2023-03-01T04:48:41;-6.50;65.00
29093;DHT22;16167;48.768;14.984;2023-03-01T04:51:10;-6.50;69.80
29093;DHT22;16167;48.768;14.984;2023-03-01T04:53:40;-6.50;69.90
29093;DHT22;16167;48.768;14.984;2023-03-01T04:56:08;-6.50;71.70
29093;DHT22;16167;48.768;14.984;2023-03-01T04:58:36;-6.50;74.50
29093;DHT22;16167;48.768;14.984;2023-03-01T05:01:09;-6.50;72.70
29093;DHT22;16167;48.768;14.984;2023-03-01T05:03:42;-6.50;67.00
29093;DHT22;16167;48.768;14.984;2023-03-01T05:06:10;-6.60;66.90
29093;DHT22;16167;48.768;14.984;2023-03-01T05:08:38;-6.60;66.10
29093;DHT22;16167;48.768;14.984;2023-03-01T05:11:07;-6.60;64.70
29093;DHT22;16167;48.768;14.984;2023-03-01T05:13:36;-6.60;63.40
29093;DHT22;16167;48.768;14.984;2023-03-01T05:16:05;-6.60;62.70
29093;DHT22;16167;48.768;14.984;2023-03-01T05:18:34;-6.60;62.90
29093;DHT22;16167;48.768;14.984;2023-03-01T05:21:03;-6.60;62.20
29093;DHT22;16167;48.768;14.984;2023-03-01T05:23:31;-6.60;63.80
29093;DHT22;16167;48.768;14.984;2023-03-01T05:25:59;-6.50;62.30
29093;DHT22;16167;48.768;14.984;2023-03-01T05:28:27;-6.50;67.80
29093;DHT22;16167;48.768;14.984;2023-03-01T05:30:56;-6.40;68.70
29093;DHT22;16167;48.768;14.984;2023-03-01T05:33:24;-6.40;64.80
29093;DHT22;16167;48.768;14.984;2023-03-01T05:35:54;-6.40;68.00
29093;DHT22;16167;48.768;14.984;2023-03-01T05:38:22;-6.40;66.90
29093;DHT22;16167;48.768;14.984;2023-03-01T05:40:50;-6.50;66.20
29093;DHT22;16167;48.768;14.984;2023-03-01T05:43:17;-6.50;67.60
29093;DHT22;16167;48.768;14.984;2023-03-01T05:45:45;-6.50;67.90
29093;DHT22;16167;48.768;14.984;2023-03-01T05:48:13;-6.50;69.50
29093;DHT22;16167;48.768;14.984;2023-03-01T05:50:42;-6.50;67.60
29093;DHT22;16167;48.768;14.984;2023-03-01T05:53:12;-6.50;70.50
29093;DHT22;16167;48.768;14.984;2023-03-01T05:55:41;-6.40;69.50
29093;DHT22;16167;48.768;14.984;2023-03-01T05:58:11;-6.40;68.60
29093;DHT22;16167;48.768;14.984;2023-03-01T06:00:40;-6.40;66.90
29093;DHT22;16167;48.768;14.984;2023-03-01T06:03:09;-6.40;68.50
29093;DHT22;16167;48.768;14.984;2023-03-01T06:05:37;-6.40;68.50
29093;DHT22;16167;48.768;14.984;2023-03-01T06:08:06;-6.40;67.20
29093;DHT22;16167;48.768;14.984;2023-03-01T06:10:35;-6.30;65.80
29093;DHT22;16167;48.768;14.984;2023-03-01T06:13:03;-6.30;64.50
29093;DHT22;16167;48.768;14.984;2023-03-01T06:15:31;-6.30;60.50
29093;DHT22;16167;48.768;14.984;2023-03-01T06:17:59;-6.30;64.60
29093;DHT22;16167;48.768;14.984;2023-03-01T06:20:28;-6.30;63.40
29093;DHT22;16167;48.768;14.984;2023-03-01T06:22:56;-6.30;60.30
29093;DHT22;16167;48.768;14.984;2023-03-01T06:25:24;-6.20;61.30
29093;DHT22;16167;48.768;14.984;2023-03-01T06:27:54;-6.10;63.90
29093;DHT22;16167;48.768;14.984;2023-03-01T06:30:23;-6.10;65.20
29093;DHT22;16167;48.768;14.984;2023-03-01T06:32:51;-6.10;61.40
29093;DHT22;16167;48.768;14.984;2023-03-01T06:35:19;-6.00;62.10
29093;DHT22;16167;48.768;14.984;2023-03-01T06:37:47;-6.00;64.30
29093;DHT22;16167;48.768;14.984;2023-03-01T06:40:15;-5.90;64.00
29093;DHT22;16167;48.768;14.984;2023-03-01T06:42:46;-5.90;67.10
29093;DHT22;16167;48.768;14.984;2023-03-01T06:45:16;-5.80;64.90
29093;DHT22;16167;48.768;14.984;2023-03-01T06:47:45;-5.80;66.80
29093;DHT22;16167;48.768;14.984;2023-03-01T06:50:13;-5.70;69.00
29093;DHT22;16167;48.768;14.984;2023-03-01T06:52:41;-5.60;67.30
29093;DHT22;16167;48.768;14.984;2023-03-01T06:55:11;-5.50;64.50
29093;DHT22;16167;48.768;14.984;2023-03-01T06:57:39;-5.40;58.30
29093;DHT22;16167;48.768;14.984;2023-03-01T07:00:07;-5.20;61.10
29093;DHT22;16167;48.768;14.984;2023-03-01T07:02:37;-5.10;60.20
29093;DHT22;16167;48.768;14.984;2023-03-01T07:05:05;-5.00;56.40
29093;DHT22;16167;48.768;14.984;2023-03-01T07:07:33;-4.90;56.60
29093;DHT22;16167;48.768;14.984;2023-03-01T07:10:01;-4.90;58.00
29093;DHT22;16167;48.768;14.984;2023-03-01T07:12:29;-4.80;61.10
29093;DHT22;16167;48.768;14.984;2023-03-01T07:14:56;-4.70;57.90
29093;DHT22;16167;48.768;14.984;2023-03-01T07:17:24;-4.70;53.10
29093;DHT22;16167;48.768;14.984;2023-03-01T07:19:53;-4.60;53.70
29093;DHT22;16167;48.768;14.984;2023-03-01T07:22:21;-4.50;57.70
29093;DHT22;16167;48.768;14.984;2023-03-01T07:24:49;-4.40;56.60
29093;DHT22;16167;48.768;14.984;2023-03-01T07:27:17;-4.30;48.90
29093;DHT22;16167;48.768;14.984;2023-03-01T07:29:45;-4.10;50.60
29093;DHT22;16167;48.768;14.984;2023-03-01T07:32:13;-4.10;55.60
29093;DHT22;16167;48.768;14.984;2023-03-01T07:34:41;-3.90;53.60
29093;DHT22;16167;48.768;14.984;2023-03-01T07:37:10;-3.70;58.20
29093;DHT22;16167;48.768;14.984;2023-03-01T07:39:38;-3.60;54.40
29093;DHT22;16167;48.768;14.984;2023-03-01T07:42:06;-3.50;50.20
29093;DHT22;16167;48.768;14.984;2023-03-01T07:44:34;-3.20;51.60
29093;DHT22;16167;48.768;14.984;2023-03-01T07:47:02;-3.00;54.80
29093;DHT22;16167;48.768;14.984;2023-03-01T07:49:30;-2.80;48.90
29093;DHT22;16167;48.768;14.984;2023-03-01T07:51:58;-2.60;42.90
29093;DHT22;16167;48.768;14.984;2023-03-01T07:54:27;-2.40;37.80
29093;DHT22;16167;48.768;14.984;2023-03-01T07:56:56;-2.20;36.40
29093;DHT22;16167;48.768;14.984;2023-03-01T07:59:24;-2.00;26.60
29093;DHT22;16167;48.768;14.984;2023-03-01T08:01:55;-1.80;30.40
29093;DHT22;16167;48.768;14.984;2023-03-01T08:04:23;-1.60;19.20
29093;DHT22;16167;48.768;14.984;2023-03-01T08:06:53;-1.40;5.90
29093;DHT22;16167;48.768;14.984;2023-03-01T08:09:21;-1.10;1.00
29093;DHT22;16167;48.768;14.984;2023-03-01T08:11:50;-1.00;1.00
29093;DHT22;16167;48.768;14.984;2023-03-01T08:14:18;-0.80;1.00
29093;DHT22;16167;48.768;14.984;2023-03-01T08:16:48;-0.50;1.00
29093;DHT22;16167;48.768;14.984;2023-03-01T08:19:16;-0.40;1.00
29093;DHT22;16167;48.768;14.984;2023-03-01T08:21:44;-0.20;1.00
29093;DHT22;16167;48.768;14.984;2023-03-01T08:24:12;0.00;1.00
29093;DHT22;16167;48.768;14.984;2023-03-01T08:26:40;0.20;1.00
29093;DHT22;16167;48.768;14.984;2023-03-01T08:29:09;0.30;1.00
29093;DHT22;16167;48.768;14.984;2023-03-01T08:31:38;0.50;1.00
29093;DHT22;16167;48.768;14.984;2023-03-01T08:34:07;0.70;1.00
29093;DHT22;16167;48.768;14.984;2023-03-01T08:36:36;0.90;1.00
29093;DHT22;16167;48.768;14.984;2023-03-01T08:39:04;1.10;1.00
29093;DHT22;16167;48.768;14.984;2023-03-01T08:41:32;1.30;1.00
29093;DHT22;16167;48.768;14.984;2023-03-01T08:44:00;1.50;1.00
29093;DHT22;16167;48.768;14.984;2023-03-01T08:46:30;1.70;99.10
29093;DHT22;16167;48.768;14.984;2023-03-01T08:48:59;1.90;99.90
29093;DHT22;16167;48.768;14.984;2023-03-01T08:51:27;2.10;99.90
29093;DHT22;16167;48.768;14.984;2023-03-01T08:53:55;2.30;99.90
29093;DHT22;16167;48.768;14.984;2023-03-01T08:56:23;2.60;99.90
29093;DHT22;16167;48.768;14.984;2023-03-01T08:58:51;2.80;99.90
29093;DHT22;16167;48.768;14.984;2023-03-01T09:01:19;3.00;99.90
29093;DHT22;16167;48.768;14.984;2023-03-01T09:03:48;3.30;99.90
29093;DHT22;16167;48.768;14.984;2023-03-01T09:06:16;3.60;99.90
29093;DHT22;16167;48.768;14.984;2023-03-01T09:08:45;3.70;99.90
29093;DHT22;16167;48.768;14.984;2023-03-01T09:11:17;3.90;99.90
29093;DHT22;16167;48.768;14.984;2023-03-01T09:13:45;4.10;99.90
29093;DHT22;16167;48.768;14.984;2023-03-01T09:16:14;4.30;99.90
29093;DHT22;16167;48.768;14.984;2023-03-01T09:18:43;4.40;98.90
29093;DHT22;16167;48.768;14.984;2023-03-01T09:21:13;4.60;99.20
29093;DHT22;16167;48.768;14.984;2023-03-01T09:23:42;4.80;98.70
29093;DHT22;16167;48.768;14.984;2023-03-01T09:26:11;5.00;98.20
29093;DHT22;16167;48.768;14.984;2023-03-01T09:28:39;5.20;97.80
29093;DHT22;16167;48.768;14.984;2023-03-01T09:31:07;5.50;96.90
29093;DHT22;16167;48.768;14.984;2023-03-01T09:33:35;5.60;95.80
29093;DHT22;16167;48.768;14.984;2023-03-01T09:36:04;5.80;94.70
29093;DHT22;16167;48.768;14.984;2023-03-01T09:38:33;6.30;95.50
29093;DHT22;16167;48.768;14.984;2023-03-01T09:41:02;6.60;94.90
29093;DHT22;16167;48.768;14.984;2023-03-01T09:43:31;6.70;93.70
29093;DHT22;16167;48.768;14.984;2023-03-01T09:46:03;6.90;93.30
29093;DHT22;16167;48.768;14.984;2023-03-01T09:48:33;6.80;93.30
29093;DHT22;16167;48.768;14.984;2023-03-01T09:51:04;6.80;93.40
29093;DHT22;16167;48.768;14.984;2023-03-01T09:53:35;6.80;91.30
29093;DHT22;16167;48.768;14.984;2023-03-01T09:56:04;6.70;91.20
29093;DHT22;16167;48.768;14.984;2023-03-01T09:58:35;6.80;92.10
29093;DHT22;16167;48.768;14.984;2023-03-01T10:01:10;7.20;93.10
29093;DHT22;16167;48.768;14.984;2023-03-01T10:03:44;7.40;90.40
29093;DHT22;16167;48.768;14.984;2023-03-01T10:06:14;7.50;90.60
29093;DHT22;16167;48.768;14.984;2023-03-01T10:09:02;7.60;90.60
29093;DHT22;16167;48.768;14.984;2023-03-01T10:11:31;7.70;90.40
29093;DHT22;16167;48.768;14.984;2023-03-01T10:14:01;8.10;88.90
29093;DHT22;16167;48.768;14.984;2023-03-01T10:16:34;8.10;87.10
29093;DHT22;16167;48.768;14.984;2023-03-01T10:19:05;8.00;83.30
29093;DHT22;16167;48.768;14.984;2023-03-01T10:21:34;8.10;85.20
29093;DHT22;16167;48.768;14.984;2023-03-01T10:24:10;8.10;83.70
29093;DHT22;16167;48.768;14.984;2023-03-01T10:26:40;8.10;82.90
29093;DHT22;16167;48.768;14.984;2023-03-01T10:29:10;8.00;81.20
29093;DHT22;16167;48.768;14.984;2023-03-01T10:31:39;7.90;82.20
29093;DHT22;16167;48.768;14.984;2023-03-01T10:34:20;8.10;85.20
29093;DHT22;16167;48.768;14.984;2023-03-01T10:36:48;8.50;81.00
29093;DHT22;16167;48.768;14.984;2023-03-01T10:39:19;8.70;80.90
29093;DHT22;16167;48.768;14.984;2023-03-01T10:41:52;8.70;81.60
29093;DHT22;16167;48.768;14.984;2023-03-01T10:44:34;9.00;83.90
29093;DHT22;16167;48.768;14.984;2023-03-01T10:47:03;9.20;82.20
29093;DHT22;16167;48.768;14.984;2023-03-01T10:49:31;9.30;82.10
29093;DHT22;16167;48.768;14.984;2023-03-01T10:51:59;9.40;80.70
29093;DHT22;16167;48.768;14.984;2023-03-01T10:54:40;9.50;80.40
29093;DHT22;16167;48.768;14.984;2023-03-01T10:57:10;9.70;81.70
29093;DHT22;16167;48.768;14.984;2023-03-01T11:00:00;9.80;81.00
29093;DHT22;16167;48.768;14.984;2023-03-01T11:02:29;10.00;78.30
29093;DHT22;16167;48.768;14.984;2023-03-01T11:05:00;10.00;76.00
29093;DHT22;16167;48.768;14.984;2023-03-01T11:07:28;9.90;75.20
29093;DHT22;16167;48.768;14.984;2023-03-01T11:09:57;10.20;77.40
29093;DHT22;16167;48.768;14.984;2023-03-01T11:12:25;10.40;77.20
29093;DHT22;16167;48.768;14.984;2023-03-01T11:14:56;10.70;75.90
29093;DHT22;16167;48.768;14.984;2023-03-01T11:17:25;10.70;72.90
29093;DHT22;16167;48.768;14.984;2023-03-01T11:20:05;10.80;72.80
29093;DHT22;16167;48.768;14.984;2023-03-01T11:22:34;10.70;70.90
29093;DHT22;16167;48.768;14.984;2023-03-01T11:25:05;10.70;72.30
29093;DHT22;16167;48.768;14.984;2023-03-01T11:27:39;10.90;71.80
29093;DHT22;16167;48.768;14.984;2023-03-01T11:30:12;11.00;70.50
29093;DHT22;16167;48.768;14.984;2023-03-01T11:32:44;11.00;68.50
29093;DHT22;16167;48.768;14.984;2023-03-01T11:35:15;11.20;69.70
29093;DHT22;16167;48.768;14.984;2023-03-01T11:37:47;11.30;69.50
29093;DHT22;16167;48.768;14.984;2023-03-01T11:40:23;11.60;70.10
29093;DHT22;16167;48.768;14.984;2023-03-01T11:42:57;11.90;70.00
29093;DHT22;16167;48.768;14.984;2023-03-01T11:45:28;12.20;67.90
29093;DHT22;16167;48.768;14.984;2023-03-01T11:48:05;12.40;65.80
29093;DHT22;16167;48.768;14.984;2023-03-01T11:50:35;12.40;67.50
29093;DHT22;16167;48.768;14.984;2023-03-01T11:55:54;12.30;63.30
29093;DHT22;16167;48.768;14.984;2023-03-01T11:58:28;12.40;64.80
29093;DHT22;16167;48.768;14.984;2023-03-01T12:01:00;12.70;64.20
29093;DHT22;16167;48.768;14.984;2023-03-01T12:03:33;13.00;62.50
29093;DHT22;16167;48.768;14.984;2023-03-01T12:06:09;13.40;60.90
29093;DHT22;16167;48.768;14.984;2023-03-01T12:08:41;13.50;59.70
29093;DHT22;16167;48.768;14.984;2023-03-01T12:11:15;12.80;59.50
29093;DHT22;16167;48.768;14.984;2023-03-01T12:13:56;12.70;60.50
29093;DHT22;16167;48.768;14.984;2023-03-01T12:16:33;13.00;63.20
29093;DHT22;16167;48.768;14.984;2023-03-01T12:19:08;13.30;60.60
29093;DHT22;16167;48.768;14.984;2023-03-01T12:21:42;13.00;58.80
29093;DHT22;16167;48.768;14.984;2023-03-01T12:24:31;12.30;59.50
29093;DHT22;16167;48.768;14.984;2023-03-01T12:27:21;11.60;59.90
29093;DHT22;16167;48.768;14.984;2023-03-01T12:29:54;11.00;62.80
29093;DHT22;16167;48.768;14.984;2023-03-01T12:32:31;10.30;62.80
29093;DHT22;16167;48.768;14.984;2023-03-01T12:35:05;10.00;65.30
29093;DHT22;16167;48.768;14.984;2023-03-01T12:37:39;9.70;67.20
29093;DHT22;16167;48.768;14.984;2023-03-01T12:40:15;9.50;67.70
29093;DHT22;16167;48.768;14.984;2023-03-01T12:42:52;9.10;66.30
29093;DHT22;16167;48.768;14.984;2023-03-01T12:45:27;9.10;69.50
29093;DHT22;16167;48.768;14.984;2023-03-01T12:48:04;9.10;70.00
29093;DHT22;16167;48.768;14.984;2023-03-01T12:50:38;9.20;70.60
29093;DHT22;16167;48.768;14.984;2023-03-01T12:53:21;9.00;69.30
29093;DHT22;16167;48.768;14.984;2023-03-01T12:55:50;8.80;71.30
29093;DHT22;16167;48.768;14.984;2023-03-01T12:58:23;8.70;69.90
29093;DHT22;16167;48.768;14.984;2023-03-01T13:01:01;8.60;71.20
29093;DHT22;16167;48.768;14.984;2023-03-01T13:03:47;8.50;72.00
29093;DHT22;16167;48.768;14.984;2023-03-01T13:06:17;8.30;71.70
29093;DHT22;16167;48.768;14.984;2023-03-01T13:08:53;8.20;72.90
29093;DHT22;16167;48.768;14.984;2023-03-01T13:11:23;8.00;73.10
29093;DHT22;16167;48.768;14.984;2023-03-01T13:13:53;7.90;74.60
29093;DHT22;16167;48.768;14.984;2023-03-01T13:16:41;7.70;75.00
29093;DHT22;16167;48.768;14.984;2023-03-01T13:19:13;7.60;75.60
29093;DHT22;16167;48.768;14.984;2023-03-01T13:21:42;7.50;75.60
29093;DHT22;16167;48.768;14.984;2023-03-01T13:24:24;7.40;76.20
29093;DHT22;16167;48.768;14.984;2023-03-01T13:27:09;7.40;77.40
29093;DHT22;16167;48.768;14.984;2023-03-01T13:29:44;7.60;76.70
29093;DHT22;16167;48.768;14.984;2023-03-01T13:32:18;7.90;75.60
29093;DHT22;16167;48.768;14.984;2023-03-01T13:34:57;7.90;75.50
29093;DHT22;16167;48.768;14.984;2023-03-01T13:37:26;7.90;75.50
29093;DHT22;16167;48.768;14.984;2023-03-01T13:39:56;8.30;75.10
29093;DHT22;16167;48.768;14.984;2023-03-01T13:42:38;8.60;74.10
29093;DHT22;16167;48.768;14.984;2023-03-01T13:45:15;8.70;73.50
29093;DHT22;16167;48.768;14.984;2023-03-01T13:47:44;9.30;71.60
29093;DHT22;16167;48.768;14.984;2023-03-01T13:50:16;10.00;69.60
29093;DHT22;16167;48.768;14.984;2023-03-01T13:52:44;10.50;67.90
29093;DHT22;16167;48.768;14.984;2023-03-01T13:55:16;10.80;66.40
29093;DHT22;16167;48.768;14.984;2023-03-01T13:57:46;11.20;63.80
29093;DHT22;16167;48.768;14.984;2023-03-01T14:00:29;11.50;64.20
29093;DHT22;16167;48.768;14.984;2023-03-01T14:03:00;11.60;64.60
29093;DHT22;16167;48.768;14.984;2023-03-01T14:05:32;11.80;63.20
29093;DHT22;16167;48.768;14.984;2023-03-01T14:08:00;12.80;62.10
29093;DHT22;16167;48.768;14.984;2023-03-01T14:10:30;13.20;58.70
29093;DHT22;16167;48.768;14.984;2023-03-01T14:13:00;13.90;58.00
29093;DHT22;16167;48.768;14.984;2023-03-01T14:15:44;14.40;55.80
29093;DHT22;16167;48.768;14.984;2023-03-01T14:18:14;14.60;54.20
29093;DHT22;16167;48.768;14.984;2023-03-01T14:20:45;14.70;53.90
29093;DHT22;16167;48.768;14.984;2023-03-01T14:23:20;14.30;53.40
29093;DHT22;16167;48.768;14.984;2023-03-01T14:25:48;14.10;55.00
29093;DHT22;16167;48.768;14.984;2023-03-01T14:28:17;13.70;54.30
29093;DHT22;16167;48.768;14.984;2023-03-01T14:30:47;13.10;55.30
29093;DHT22;16167;48.768;14.984;2023-03-01T14:33:18;12.40;57.20
29093;DHT22;16167;48.768;14.984;2023-03-01T14:35:52;12.00;57.70
29093;DHT22;16167;48.768;14.984;2023-03-01T14:38:21;11.60;59.10
29093;DHT22;16167;48.768;14.984;2023-03-01T14:40:49;11.00;60.50
29093;DHT22;16167;48.768;14.984;2023-03-01T14:43:20;10.20;62.40
29093;DHT22;16167;48.768;14.984;2023-03-01T14:45:51;9.70;65.20
29093;DHT22;16167;48.768;14.984;2023-03-01T14:48:19;9.10;66.00
29093;DHT22;16167;48.768;14.984;2023-03-01T14:50:47;8.80;68.00
29093;DHT22;16167;48.768;14.984;2023-03-01T14:53:16;8.50;69.20
29093;DHT22;16167;48.768;14.984;2023-03-01T14:55:46;8.40;69.80
29093;DHT22;16167;48.768;14.984;2023-03-01T14:58:15;8.10;70.20
29093;DHT22;16167;48.768;14.984;2023-03-01T15:00:47;7.90;71.00
29093;DHT22;16167;48.768;14.984;2023-03-01T15:03:19;7.70;72.40
29093;DHT22;16167;48.768;14.984;2023-03-01T15:05:47;7.60;73.10
29093;DHT22;16167;48.768;14.984;2023-03-01T15:08:16;7.50;74.10
29093;DHT22;16167;48.768;14.984;2023-03-01T15:10:55;7.30;74.70
29093;DHT22;16167;48.768;14.984;2023-03-01T15:13:24;7.30;75.60
29093;DHT22;16167;48.768;14.984;2023-03-01T15:15:52;7.20;75.30
29093;DHT22;16167;48.768;14.984;2023-03-01T15:18:29;7.20;76.20
29093;DHT22;16167;48.768;14.984;2023-03-01T15:21:05;7.30;75.90
29093;DHT22;16167;48.768;14.984;2023-03-01T15:23:33;7.20;75.90
29093;DHT22;16167;48.768;14.984;2023-03-01T15:26:01;7.00;75.70
29093;DHT22;16167;48.768;14.984;2023-03-01T15:28:30;6.80;76.40
29093;DHT22;16167;48.768;14.984;2023-03-01T15:30:59;6.50;77.20
29093;DHT22;16167;48.768;14.984;2023-03-01T15:33:30;6.40;78.90
29093;DHT22;16167;48.768;14.984;2023-03-01T15:35:59;6.20;79.00
29093;DHT22;16167;48.768;14.984;2023-03-01T15:38:31;6.10;80.40
29093;DHT22;16167;48.768;14.984;2023-03-01T15:41:00;6.00;80.90